createdAt,value
2019-06-07T00:01:13.827Z,16.50
2019-06-07T00:03:42.478Z,16.46
2019-06-07T00:06:16.437Z,16.42
2019-06-07T00:08:41.439Z,16.35
2019-06-07T00:11:11.071Z,16.30
2019-06-07T00:13:40.541Z,16.25
2019-06-07T00:16:11.905Z,16.18
2019-06-07T00:18:39.773Z,16.19
2019-06-07T00:21:09.936Z,16.17
2019-06-07T00:23:38.733Z,16.08
2019-06-07T00:26:08.378Z,16.07
2019-06-07T00:28:37.015Z,15.94
2019-06-07T00:31:05.891Z,15.88
2019-06-07T00:33:34.751Z,15.92
2019-06-07T00:36:03.471Z,15.83
2019-06-07T00:38:32.042Z,15.79
2019-06-07T00:41:00.703Z,15.80
2019-06-07T00:43:29.399Z,15.78
2019-06-07T00:45:58.049Z,15.76
2019-06-07T00:48:32.372Z,15.73
2019-06-07T00:50:57.071Z,15.77
2019-06-07T00:53:31.503Z,15.73
2019-06-07T00:55:56.109Z,15.69
2019-06-07T00:58:29.168Z,15.64
2019-06-07T01:00:55.337Z,15.64
2019-06-07T01:03:25.839Z,15.65
2019-06-07T01:05:54.403Z,15.65
2019-06-07T01:08:28.172Z,15.68
2019-06-07T01:10:54.431Z,15.67
2019-06-07T01:13:26.486Z,15.65
2019-06-07T01:15:53.720Z,15.66
2019-06-07T01:18:43.565Z,15.63
2019-06-07T01:20:52.748Z,15.61
2019-06-07T01:23:59.725Z,15.57
2019-06-07T01:25:51.983Z,15.58
2019-06-07T01:28:24.157Z,15.55
2019-06-07T01:30:52.363Z,15.59
2019-06-07T01:33:23.503Z,15.56
2019-06-07T01:35:51.630Z,15.56
2019-06-07T01:38:21.939Z,15.51
2019-06-07T01:40:50.643Z,15.49
2019-06-07T01:43:20.177Z,15.52
2019-06-07T01:45:49.598Z,15.54
2019-06-07T01:48:22.803Z,15.49
2019-06-07T01:50:48.632Z,15.54
2019-06-07T01:53:21.682Z,15.52
2019-06-07T01:55:47.597Z,15.50
2019-06-07T01:58:17.068Z,15.50
2019-06-07T02:00:46.792Z,15.44
2019-06-07T02:03:15.376Z,15.46
2019-06-07T02:05:44.024Z,15.41
2019-06-07T02:08:12.642Z,15.39
2019-06-07T02:10:41.220Z,15.39
2019-06-07T02:13:09.946Z,15.35
2019-06-07T02:15:38.690Z,15.39
2019-06-07T02:18:07.353Z,15.36
2019-06-07T02:20:35.985Z,15.33
2019-06-07T02:23:04.599Z,15.33
2019-06-07T02:25:43.705Z,15.33
2019-06-07T02:28:26.554Z,15.31
2019-06-07T02:30:47.293Z,15.37
2019-06-07T02:33:04.532Z,15.37
2019-06-07T02:35:39.969Z,15.31
2019-06-07T02:38:03.652Z,15.27
2019-06-07T02:40:37.167Z,15.26
2019-06-07T02:43:02.926Z,15.32
2019-06-07T02:45:37.694Z,15.26
2019-06-07T02:48:02.030Z,15.19
2019-06-07T02:50:35.384Z,15.17
2019-06-07T02:53:01.078Z,15.15
2019-06-07T02:55:36.506Z,15.16
2019-06-07T02:58:00.122Z,15.22
2019-06-07T03:00:58.617Z,15.19
2019-06-07T03:03:08.064Z,15.18
2019-06-07T03:05:40.793Z,15.20
2019-06-07T03:08:09.791Z,15.25
2019-06-07T03:10:41.745Z,15.25
2019-06-07T03:13:12.332Z,15.28
2019-06-07T03:15:49.584Z,15.26
2019-06-07T03:18:34.401Z,15.29
2019-06-07T03:21:05.619Z,15.36
2019-06-07T03:23:35.761Z,15.37
2019-06-07T03:26:05.754Z,15.37
2019-06-07T03:28:37.482Z,15.41
2019-06-07T03:31:05.698Z,15.44
2019-06-07T03:33:41.519Z,15.46
2019-06-07T03:36:22.915Z,15.50
2019-06-07T03:38:37.619Z,15.60
2019-06-07T03:41:05.967Z,15.63
2019-06-07T03:43:37.794Z,15.63
2019-06-07T03:46:05.191Z,15.61
2019-06-07T03:48:36.378Z,15.66
2019-06-07T03:51:12.738Z,15.73
2019-06-07T03:53:36.545Z,15.76
2019-06-07T03:56:05.488Z,15.82
2019-06-07T03:58:41.150Z,15.83
2019-06-07T04:01:04.516Z,15.91
2019-06-07T04:03:43.600Z,15.97
2019-06-07T04:06:03.690Z,16.07
2019-06-07T04:08:34.430Z,16.20
2019-06-07T04:11:02.695Z,16.20
2019-06-07T04:13:36.692Z,16.30
2019-06-07T04:16:01.739Z,16.38
2019-06-07T04:18:30.677Z,16.40
2019-06-07T04:20:59.255Z,16.45
2019-06-07T04:23:31.271Z,16.56
2019-06-07T04:25:58.331Z,16.63
2019-06-07T04:29:13.706Z,16.71
2019-06-07T04:30:57.384Z,16.83
2019-06-07T04:33:26.516Z,16.93
2019-06-07T04:35:56.746Z,17.06
2019-06-07T04:38:26.102Z,17.16
2019-06-07T04:40:55.246Z,17.25
2019-06-07T04:43:25.640Z,17.33
2019-06-07T04:45:55.792Z,17.44
2019-06-07T04:48:26.993Z,17.53
2019-06-07T04:50:56.739Z,17.65
2019-06-07T04:53:25.430Z,17.76
2019-06-07T04:55:54.071Z,17.89
2019-06-07T04:58:22.967Z,18.01
2019-06-07T05:00:56.357Z,18.16
2019-06-07T05:03:21.936Z,18.22
2019-06-07T05:05:50.593Z,18.32
2019-06-07T05:08:27.976Z,18.43
2019-06-07T05:10:49.665Z,18.53
2019-06-07T05:13:18.322Z,18.67
2019-06-07T05:15:47.039Z,18.70
2019-06-07T05:18:15.708Z,18.88
2019-06-07T05:20:44.882Z,18.98
2019-06-07T05:23:59.406Z,19.15
2019-06-07T05:25:44.733Z,19.27
2019-06-07T05:28:13.754Z,19.32
2019-06-07T05:33:12.793Z,19.67
2019-06-07T05:35:43.393Z,19.81
2019-06-07T05:38:11.914Z,19.98
2019-06-07T05:40:47.698Z,20.19
2019-06-07T05:43:26.560Z,20.40
2019-06-07T05:45:55.190Z,20.58
2019-06-07T05:48:23.860Z,20.85
2019-06-07T05:50:57.082Z,21.10
2019-06-07T05:53:22.974Z,21.31
2019-06-07T05:55:51.796Z,21.54
2019-06-07T05:58:20.471Z,21.75
2019-06-07T06:00:49.336Z,21.95
2019-06-07T06:03:18.004Z,22.23
2019-06-07T06:05:54.605Z,22.44
2019-06-07T06:08:17.073Z,22.62
2019-06-07T06:10:48.700Z,22.64
2019-06-07T06:13:16.260Z,22.85
2019-06-07T06:15:56.194Z,23.00
2019-06-07T06:18:15.295Z,23.26
2019-06-07T06:23:14.343Z,23.75
2019-06-07T06:25:50.889Z,23.91
2019-06-07T06:28:15.902Z,24.20
2019-06-07T06:30:47.369Z,24.36
2019-06-07T06:33:30.680Z,24.57
2019-06-07T06:35:47.488Z,24.70
2019-06-07T06:38:14.982Z,24.93
2019-06-07T06:40:47.010Z,25.13
2019-06-07T06:43:14.226Z,25.34
2019-06-07T06:45:45.197Z,25.50
2019-06-07T06:48:13.278Z,25.34
2019-06-07T06:50:44.421Z,25.58
2019-06-07T06:53:12.370Z,25.61
2019-06-07T06:55:41.522Z,25.53
2019-06-07T06:58:10.282Z,25.57
2019-06-07T07:00:58.907Z,25.66
2019-06-07T07:05:54.186Z,26.26
2019-06-07T07:08:20.957Z,26.44
2019-06-07T07:10:53.248Z,26.67
2019-06-07T07:13:20.311Z,26.93
2019-06-07T07:15:55.082Z,26.92
2019-06-07T07:18:19.942Z,26.94
2019-06-07T07:20:51.317Z,27.19
2019-06-07T07:23:18.926Z,27.54
2019-06-07T07:25:57.296Z,27.95
2019-06-07T07:28:17.975Z,28.03
2019-06-07T07:30:55.419Z,28.20
2019-06-07T07:33:23.251Z,28.27
2019-06-07T07:36:16.413Z,28.46
2019-06-07T07:38:22.335Z,28.57
2019-06-07T07:41:13.412Z,28.75
2019-06-07T07:43:21.687Z,29.19
2019-06-07T07:45:54.979Z,29.35
2019-06-07T07:48:20.808Z,29.59
2019-06-07T07:50:53.686Z,29.54
2019-06-07T07:53:19.961Z,30.55
2019-06-07T07:55:50.484Z,31.85
2019-06-07T07:58:18.966Z,33.13
2019-06-07T08:00:52.826Z,36.05
2019-06-07T08:03:17.875Z,38.10
2019-06-07T08:05:47.115Z,39.89
2019-06-07T08:08:16.957Z,41.75
2019-06-07T08:10:48.032Z,43.58
2019-06-07T08:13:24.664Z,44.51
2019-06-07T08:15:48.255Z,46.01
2019-06-07T08:18:16.779Z,46.98
2019-06-07T08:21:04.881Z,47.58
2019-06-07T08:23:15.816Z,47.86
2019-06-07T08:25:44.506Z,49.38
2019-06-07T08:28:13.171Z,49.35
2019-06-07T08:30:55.038Z,49.59
2019-06-07T08:33:25.986Z,50.03
2019-06-07T08:36:06.060Z,51.34
2019-06-07T08:38:25.975Z,51.13
2019-06-07T08:40:43.637Z,50.53
2019-06-07T08:43:20.379Z,52.55
2019-06-07T08:45:42.863Z,53.05
2019-06-07T08:48:27.083Z,53.68
2019-06-07T08:50:41.959Z,51.99
2019-06-07T08:53:12.285Z,52.23
2019-06-07T08:55:40.970Z,53.39
2019-06-07T08:58:09.624Z,53.73
2019-06-07T09:00:47.563Z,54.56
2019-06-07T09:03:08.672Z,54.46
2019-06-07T09:05:37.320Z,55.25
2019-06-07T09:08:28.554Z,53.98
2019-06-07T09:10:36.574Z,53.01
2019-06-07T09:13:11.313Z,54.90
2019-06-07T09:15:35.921Z,53.81
2019-06-07T09:20:44.459Z,54.78
2019-06-07T09:23:17.415Z,56.08
2019-06-07T09:25:56.436Z,54.90
2019-06-07T09:28:19.892Z,55.84
2019-06-07T09:30:46.240Z,56.45
2019-06-07T09:33:15.026Z,56.46
2019-06-07T09:35:43.718Z,55.61
2019-06-07T09:38:24.183Z,56.33
2019-06-07T09:40:42.738Z,56.33
2019-06-07T09:45:41.862Z,57.25
2019-06-07T09:48:16.236Z,56.84
2019-06-07T09:50:41.033Z,56.75
2019-06-07T09:53:21.086Z,55.97
2019-06-07T09:55:40.052Z,58.32
2019-06-07T09:58:48.339Z,58.37
2019-06-07T10:00:42.127Z,58.85
2019-06-07T10:03:20.091Z,58.34
2019-06-07T10:05:39.844Z,57.82
2019-06-07T10:08:36.923Z,59.06
2019-06-07T10:10:39.058Z,57.28
2019-06-07T10:13:08.908Z,58.46
2019-06-07T10:15:38.075Z,58.51
2019-06-07T10:18:07.129Z,60.27
2019-06-07T10:20:35.894Z,58.56
2019-06-07T10:23:05.734Z,59.69
2019-06-07T10:25:34.504Z,60.34
2019-06-07T10:28:03.847Z,61.69
2019-06-07T10:30:32.571Z,61.88
2019-06-07T10:33:02.248Z,60.41
2019-06-07T10:35:31.100Z,58.66
2019-06-07T10:38:00.307Z,58.42
2019-06-07T10:40:29.078Z,56.98
2019-06-07T10:42:57.913Z,55.76
2019-06-07T10:45:26.549Z,54.65
2019-06-07T10:47:55.590Z,53.35
2019-06-07T10:50:24.255Z,52.47
2019-06-07T10:52:52.886Z,51.46
2019-06-07T10:55:21.536Z,49.35
2019-06-07T10:57:50.237Z,46.56
2019-06-07T11:00:19.740Z,44.29
2019-06-07T11:02:48.395Z,41.74
2019-06-07T11:05:17.259Z,40.36
2019-06-07T11:07:45.962Z,39.48
2019-06-07T11:10:19.440Z,38.60
2019-06-07T11:12:45.925Z,38.14
2019-06-07T11:15:15.153Z,37.52
2019-06-07T11:17:43.887Z,37.06
2019-06-07T11:20:14.303Z,36.61
2019-06-07T11:22:43.076Z,36.00
2019-06-07T11:25:14.589Z,35.37
2019-06-07T11:27:43.453Z,34.83
2019-06-07T11:30:12.615Z,34.40
2019-06-07T11:32:41.170Z,33.97
2019-06-07T11:35:14.004Z,33.59
2019-06-07T11:37:42.663Z,33.36
2019-06-07T11:40:35.670Z,33.08
2019-06-07T11:42:43.098Z,32.86
2019-06-07T11:45:12.901Z,32.73
2019-06-07T11:47:42.231Z,32.73
2019-06-07T11:50:11.762Z,32.46
2019-06-07T11:52:40.560Z,32.20
2019-06-07T11:55:11.579Z,32.04
2019-06-07T11:57:40.655Z,31.87
2019-06-07T12:00:14.002Z,31.64
2019-06-07T12:02:42.610Z,31.44
2019-06-07T12:05:16.209Z,31.24
2019-06-07T12:07:41.718Z,31.11
2019-06-07T12:10:10.899Z,30.76
2019-06-07T12:12:39.840Z,30.88
2019-06-07T12:15:10.610Z,30.70
2019-06-07T12:17:39.700Z,30.65
2019-06-07T12:20:12.320Z,30.65
2019-06-07T12:22:40.139Z,30.56
2019-06-07T12:25:10.429Z,30.47
2019-06-07T12:27:39.273Z,30.51
2019-06-07T12:30:17.560Z,30.51
2019-06-07T12:32:39.819Z,30.28
2019-06-07T12:35:09.272Z,30.19
2019-06-07T12:37:44.239Z,30.11
2019-06-07T12:40:10.600Z,30.03
2019-06-07T12:42:39.168Z,29.67
2019-06-07T12:45:09.827Z,29.93
2019-06-07T12:47:38.404Z,30.01
2019-06-07T12:50:08.106Z,29.98
2019-06-07T12:52:36.759Z,29.94
2019-06-07T12:55:08.998Z,29.90
2019-06-07T12:57:37.664Z,29.90
2019-06-07T13:00:12.066Z,29.87
2019-06-07T13:02:40.732Z,29.87
2019-06-07T13:05:09.659Z,29.83
2019-06-07T13:07:38.332Z,29.83
2019-06-07T13:10:07.788Z,29.81
2019-06-07T13:12:36.629Z,29.77
2019-06-07T13:15:08.670Z,29.78
2019-06-07T13:17:37.928Z,29.86
2019-06-07T13:20:08.008Z,29.86
2019-06-07T13:22:36.743Z,29.78
2019-06-07T13:25:07.094Z,29.86
2019-06-07T13:27:35.856Z,29.88
2019-06-07T13:30:10.154Z,29.71
2019-06-07T13:32:37.128Z,29.80
2019-06-07T13:35:09.553Z,29.80
2019-06-07T13:37:38.963Z,29.77
2019-06-07T13:40:08.414Z,29.77
2019-06-07T13:42:37.170Z,29.77
2019-06-07T13:45:08.963Z,29.86
2019-06-07T13:47:37.649Z,29.85
2019-06-07T13:50:07.895Z,29.77
2019-06-07T13:52:37.639Z,29.74
2019-06-07T13:55:07.080Z,29.84
2019-06-07T13:57:35.814Z,29.86
2019-06-07T14:00:10.892Z,29.73
2019-06-07T14:02:38.285Z,29.77
2019-06-07T14:05:10.462Z,29.74
2019-06-07T14:07:39.104Z,29.72
2019-06-07T14:10:11.677Z,29.68
2019-06-07T14:12:39.742Z,29.64
2019-06-07T14:15:09.238Z,29.63
2019-06-07T14:17:37.923Z,29.68
2019-06-07T14:20:11.193Z,29.66
2019-06-07T14:22:40.057Z,29.71
2019-06-07T14:25:10.434Z,29.68
2019-06-07T14:27:39.085Z,29.53
2019-06-07T14:30:11.304Z,29.55
2019-06-07T14:32:39.970Z,29.56
2019-06-07T14:35:08.976Z,29.53
2019-06-07T14:37:37.623Z,29.48
2019-06-07T14:40:08.943Z,29.48
2019-06-07T14:42:37.687Z,29.52
2019-06-07T14:45:08.137Z,29.63
2019-06-07T14:47:36.801Z,29.72
2019-06-07T14:50:12.477Z,29.75
2019-06-07T14:52:41.062Z,29.76
2019-06-07T14:55:09.808Z,29.82
2019-06-07T14:57:39.290Z,29.92
2019-06-07T15:00:11.915Z,29.98
2019-06-07T15:02:40.948Z,30.13
2019-06-07T15:05:10.111Z,30.08
2019-06-07T15:07:40.580Z,29.87
2019-06-07T15:10:09.758Z,29.78
2019-06-07T15:12:40.019Z,29.94
2019-06-07T15:15:10.654Z,29.86
2019-06-07T15:17:39.449Z,29.84
2019-06-07T16:14:13.477Z,26.44
2019-06-07T16:16:43.375Z,26.42
2019-06-07T16:19:12.218Z,26.59
2019-06-07T16:21:41.467Z,26.74
2019-06-07T16:24:10.213Z,26.83
2019-06-07T16:26:40.127Z,26.84
2019-06-07T16:29:09.071Z,26.93
2019-06-07T16:31:38.724Z,26.92
2019-06-07T16:34:07.899Z,26.92
2019-06-07T16:36:36.565Z,26.89
2019-06-07T16:39:08.045Z,26.90
2019-06-07T16:41:38.368Z,26.81
2019-06-07T16:44:07.196Z,26.77
2019-06-07T16:46:36.689Z,26.73
2019-06-07T16:49:05.603Z,26.67
2019-06-07T16:51:34.287Z,26.61
2019-06-07T16:54:02.948Z,26.56
2019-06-07T16:56:31.595Z,26.56
2019-06-07T16:59:00.301Z,26.48
2019-06-07T17:01:28.926Z,26.47
2019-06-07T17:03:57.594Z,26.41
2019-06-07T17:06:26.333Z,26.42
2019-06-07T17:08:55.182Z,26.51
2019-06-07T17:11:23.844Z,26.74
2019-06-07T17:13:52.488Z,26.81
2019-06-07T17:18:58.288Z,26.82
2019-06-07T17:21:27.191Z,26.63
2019-06-07T17:23:55.846Z,26.57
2019-06-07T17:26:24.507Z,26.50
2019-06-07T17:28:53.105Z,26.32
2019-06-07T17:31:21.754Z,26.27
2019-06-07T17:33:50.439Z,26.14
2019-06-07T17:36:19.070Z,26.07
2019-06-07T17:38:48.634Z,25.98
2019-06-07T17:41:17.301Z,25.91
2019-06-07T18:58:08.269Z,23.05
2019-06-07T19:00:37.734Z,23.06
2019-06-07T19:03:06.414Z,23.02
2019-06-07T19:05:35.071Z,22.98
2019-06-07T19:08:04.024Z,22.81
2019-06-07T19:10:32.693Z,22.79
2019-06-07T19:13:01.267Z,22.73
2019-06-07T19:15:30.834Z,22.68
2019-06-07T19:18:00.982Z,22.64
2019-06-07T19:20:29.794Z,22.60
2019-06-07T19:22:58.450Z,22.48
2019-06-07T19:25:27.211Z,22.31
2019-06-07T19:27:57.032Z,22.27
2019-06-07T19:30:25.812Z,22.22
2019-06-07T19:32:55.057Z,22.17
2019-06-07T19:35:23.828Z,22.13
2019-06-07T19:37:53.640Z,22.05
2019-06-07T19:40:23.696Z,22.05
2019-06-07T19:42:52.352Z,21.98
2019-06-07T19:45:31.014Z,21.94
2019-06-07T19:47:52.353Z,21.92
2019-06-07T19:50:21.301Z,21.91
2019-06-07T19:52:49.965Z,21.82
2019-06-07T19:55:18.672Z,21.74
2019-06-07T19:57:50.088Z,21.70
2019-06-07T20:00:18.478Z,21.63
2019-06-07T20:02:47.453Z,21.55
2019-06-07T20:05:18.111Z,21.57
2019-06-07T20:07:46.783Z,21.55
2019-06-07T20:10:16.052Z,21.52
2019-06-07T20:12:44.706Z,21.53
2019-06-07T20:15:27.676Z,21.41
2019-06-07T20:17:44.523Z,21.46
2019-06-07T20:20:13.722Z,21.38
2019-06-07T20:22:42.398Z,21.32
2019-06-07T20:25:14.122Z,21.26
2019-06-07T20:27:43.250Z,21.28
2019-06-07T20:30:13.850Z,21.23
2019-06-07T20:32:44.356Z,21.24
2019-06-07T20:35:16.233Z,21.15
2019-06-07T20:37:45.040Z,21.13
2019-06-07T20:40:23.286Z,21.15
2019-06-07T20:42:44.162Z,21.07
2019-06-07T20:45:13.426Z,21.05
2019-06-07T20:47:42.089Z,20.99
2019-06-07T20:50:11.284Z,21.01
2019-06-07T20:52:39.934Z,20.98
2019-06-07T20:55:09.806Z,20.96
2019-06-07T20:57:38.658Z,20.88
2019-06-07T21:00:17.304Z,20.82
2019-06-07T21:02:39.821Z,20.85
2019-06-07T21:05:09.903Z,20.81
2019-06-07T21:07:38.843Z,20.75
2019-06-07T21:10:11.243Z,20.79
2019-06-07T21:12:40.003Z,20.72
2019-06-07T21:15:12.751Z,20.69
2019-06-07T21:17:40.290Z,20.67
2019-06-07T21:20:13.781Z,20.68
2019-06-07T21:22:39.961Z,20.58
2019-06-07T21:25:11.644Z,20.61
2019-06-07T21:27:40.465Z,20.56
2019-06-07T21:30:09.811Z,20.48
2019-06-07T21:32:38.575Z,20.49
2019-06-07T21:35:10.206Z,20.46
2019-06-07T21:37:39.044Z,20.41
2019-06-07T21:40:08.370Z,20.39
2019-06-07T21:42:37.243Z,20.34
2019-06-07T21:45:07.818Z,20.25
2019-06-07T21:47:37.007Z,20.21
2019-06-07T21:50:08.669Z,20.23
2019-06-07T21:52:37.599Z,20.18
2019-06-07T21:55:09.107Z,20.23
2019-06-07T21:57:38.528Z,20.21
2019-06-07T22:00:11.811Z,20.00
2019-06-07T22:02:41.233Z,20.08
2019-06-07T22:05:10.100Z,20.12
2019-06-07T22:07:38.830Z,20.12
2019-06-07T22:10:08.115Z,20.08
2019-06-07T22:12:36.970Z,20.08
2019-06-07T22:15:26.787Z,19.93
2019-06-07T22:17:38.317Z,19.98
2019-06-07T22:20:08.490Z,20.00
2019-06-07T22:22:37.566Z,20.01
2019-06-07T22:25:09.470Z,20.01
2019-06-07T22:27:38.158Z,19.98
2019-06-07T22:30:08.577Z,19.96
2019-06-07T22:32:37.396Z,19.93
2019-06-07T22:35:06.908Z,19.90
2019-06-07T22:37:35.659Z,19.86
2019-06-07T22:40:06.517Z,19.85
2019-06-07T22:45:08.214Z,19.88
2019-06-07T22:47:37.055Z,19.75
2019-06-07T22:50:08.740Z,19.72
2019-06-07T22:52:38.082Z,19.67
2019-06-07T22:55:10.703Z,19.62
2019-06-07T22:57:56.984Z,19.57
2019-06-07T23:00:27.506Z,19.48
2019-06-07T23:02:56.357Z,19.47
2019-06-07T23:05:25.371Z,19.45
2019-06-07T23:07:54.029Z,19.43
2019-06-07T23:10:22.780Z,19.36
2019-06-07T23:12:51.459Z,19.37
2019-06-07T23:15:20.801Z,19.31
2019-06-07T23:17:49.812Z,19.34
2019-06-07T23:20:20.159Z,19.28
2019-06-07T23:22:48.907Z,19.27
2019-06-07T23:25:22.073Z,19.28
2019-06-07T23:27:48.153Z,19.29
2019-06-07T23:30:16.953Z,19.30
2019-06-07T23:32:45.599Z,19.26
2019-06-07T23:35:14.896Z,19.25
2019-06-07T23:37:43.609Z,19.21
2019-06-07T23:40:13.183Z,19.22
2019-06-07T23:42:42.053Z,19.18
2019-06-07T23:45:12.094Z,19.16
2019-06-07T23:47:41.556Z,19.08
2019-06-07T23:50:11.513Z,19.09
2019-06-07T23:52:40.178Z,19.04
2019-06-07T23:55:09.074Z,18.93
2019-06-07T23:57:37.829Z,18.89
